createdAt,value
2024-04-18T00:00:40.312Z,25.60
2024-04-18T00:01:40.192Z,25.63
2024-04-18T00:02:40.202Z,25.62
2024-04-18T00:03:40.245Z,25.62
2024-04-18T00:04:40.348Z,25.63
2024-04-18T00:05:40.208Z,25.63
2024-04-18T00:06:40.293Z,25.63
2024-04-18T00:07:40.209Z,25.62
2024-04-18T00:08:40.222Z,25.62
2024-04-18T00:09:40.224Z,25.60
2024-04-18T00:10:40.215Z,25.63
2024-04-18T00:11:41.067Z,25.62
2024-04-18T00:12:40.562Z,25.62
2024-04-18T00:13:40.480Z,25.63
2024-04-18T00:14:40.528Z,25.65
2024-04-18T00:15:40.648Z,25.63
2024-04-18T00:16:40.664Z,25.62
2024-04-18T00:17:40.817Z,25.65
2024-04-18T00:18:40.786Z,25.62
2024-04-18T00:19:40.811Z,25.62
2024-04-18T00:20:40.864Z,25.65
2024-04-18T00:21:40.969Z,25.65
2024-04-18T00:22:40.963Z,25.65
2024-04-18T00:23:40.997Z,25.63
2024-04-18T00:24:41.071Z,25.62
2024-04-18T00:25:41.070Z,25.63
2024-04-18T00:26:41.097Z,25.65
2024-04-18T00:27:41.186Z,25.63
2024-04-18T00:28:41.182Z,25.65
2024-04-18T00:29:41.258Z,25.62
2024-04-18T00:30:41.518Z,25.63
2024-04-18T00:31:41.382Z,25.66
2024-04-18T00:32:41.449Z,25.65
2024-04-18T00:33:41.549Z,25.65
2024-04-18T00:34:41.522Z,25.63
2024-04-18T00:35:41.685Z,25.65
2024-04-18T00:36:41.705Z,25.65
2024-04-18T00:37:41.692Z,25.65
2024-04-18T00:38:41.747Z,25.65
2024-04-18T00:39:41.877Z,25.68
2024-04-18T00:40:41.875Z,25.66
2024-04-18T00:41:41.933Z,25.66
2024-04-18T00:42:42.174Z,25.65
2024-04-18T00:43:42.076Z,25.65
2024-04-18T00:44:42.135Z,25.65
2024-04-18T00:45:42.307Z,25.62
2024-04-18T00:46:42.252Z,25.68
2024-04-18T00:47:42.330Z,25.63
2024-04-18T00:48:42.487Z,25.65
2024-04-18T00:49:42.373Z,25.68
2024-04-18T00:50:42.432Z,25.68
2024-04-18T00:51:42.557Z,25.63
2024-04-18T00:52:42.559Z,25.68
2024-04-18T00:53:42.611Z,25.66
2024-04-18T00:54:42.731Z,25.65
2024-04-18T00:55:42.719Z,25.66
2024-04-18T00:56:42.784Z,25.65
2024-04-18T00:57:42.930Z,25.66
2024-04-18T00:58:42.916Z,25.68
2024-04-18T00:59:42.955Z,25.68
2024-04-18T01:00:43.243Z,25.68
2024-04-18T01:01:43.072Z,25.65
2024-04-18T01:02:43.193Z,25.68
2024-04-18T01:03:43.213Z,25.68
2024-04-18T01:04:43.408Z,25.66
2024-04-18T01:05:43.300Z,25.66
2024-04-18T01:06:43.623Z,25.66
2024-04-18T01:07:43.381Z,25.68
2024-04-18T01:08:43.418Z,25.66
2024-04-18T01:09:43.509Z,25.69
2024-04-18T01:10:43.507Z,25.68
2024-04-18T01:11:43.599Z,25.66
2024-04-18T01:12:43.708Z,25.68
2024-04-18T01:13:43.706Z,25.68
2024-04-18T01:14:43.762Z,25.68
2024-04-18T01:15:43.887Z,25.68
2024-04-18T01:16:43.880Z,25.65
2024-04-18T01:17:43.990Z,25.68
2024-04-18T01:18:44.108Z,25.68
2024-04-18T01:19:44.050Z,25.65
2024-04-18T01:20:44.116Z,25.65
2024-04-18T01:21:44.205Z,25.66
2024-04-18T01:22:44.189Z,25.63
2024-04-18T01:23:44.233Z,25.66
2024-04-18T01:24:44.355Z,25.68
2024-04-18T01:25:44.493Z,25.68
2024-04-18T01:26:44.417Z,25.66
2024-04-18T01:27:44.572Z,25.68
2024-04-18T01:28:44.450Z,25.65
2024-04-18T01:29:44.588Z,25.66
2024-04-18T01:30:44.672Z,25.66
2024-04-18T01:31:44.619Z,25.66
2024-04-18T01:32:44.772Z,25.66
2024-04-18T01:33:44.819Z,25.65
2024-04-18T01:34:44.809Z,25.65
2024-04-18T01:35:44.799Z,25.66
2024-04-18T01:36:44.858Z,25.66
2024-04-18T01:37:44.873Z,25.66
2024-04-18T01:38:44.942Z,25.66
2024-04-18T01:39:45.170Z,25.66
2024-04-18T01:40:45.061Z,25.68
2024-04-18T01:41:45.121Z,25.66
2024-04-18T01:42:45.269Z,25.65
2024-04-18T01:43:45.257Z,25.66
2024-04-18T01:44:45.363Z,25.66
2024-04-18T01:45:45.483Z,25.68
2024-04-18T01:46:45.417Z,25.69
2024-04-18T01:47:45.584Z,25.68
2024-04-18T01:48:45.598Z,25.68
2024-04-18T01:49:45.564Z,25.68
2024-04-18T01:50:45.639Z,25.65
2024-04-18T01:51:45.728Z,25.68
2024-04-18T01:52:46.749Z,25.66
2024-04-18T01:53:45.747Z,25.66
2024-04-18T01:54:46.774Z,25.68
2024-04-18T01:55:45.734Z,25.66
2024-04-18T01:56:46.741Z,25.66
2024-04-18T01:57:45.844Z,25.66
2024-04-18T01:58:45.749Z,25.66
2024-04-18T01:59:45.752Z,25.66
2024-04-18T02:00:45.833Z,25.65
2024-04-18T02:01:45.754Z,25.66
2024-04-18T02:02:45.805Z,25.66
2024-04-18T02:03:45.932Z,25.68
2024-04-18T02:04:45.951Z,25.66
2024-04-18T02:05:45.990Z,25.66
2024-04-18T02:06:46.047Z,25.68
2024-04-18T02:07:46.117Z,25.68
2024-04-18T02:08:46.169Z,25.68
2024-04-18T02:09:46.247Z,25.66
2024-04-18T02:10:46.358Z,25.68
2024-04-18T02:11:46.373Z,25.68
2024-04-18T02:12:46.473Z,25.66
2024-04-18T02:13:46.490Z,25.65
2024-04-18T02:14:46.555Z,25.68
2024-04-18T02:15:46.736Z,25.68
2024-04-18T02:16:46.629Z,25.69
2024-04-18T02:17:46.770Z,25.68
2024-04-18T02:18:46.730Z,25.66
2024-04-18T02:19:46.780Z,25.68
2024-04-18T02:20:46.810Z,25.70
2024-04-18T02:21:46.911Z,25.68
2024-04-18T02:22:46.934Z,25.69
2024-04-18T02:23:46.992Z,25.69
2024-04-18T02:24:47.077Z,25.70
2024-04-18T02:25:47.047Z,25.69
2024-04-18T02:26:47.096Z,25.66
2024-04-18T02:27:47.226Z,25.68
2024-04-18T02:28:47.182Z,25.66
2024-04-18T02:29:47.226Z,25.69
2024-04-18T02:30:47.300Z,25.66
2024-04-18T02:31:47.357Z,25.69
2024-04-18T02:32:47.431Z,25.69
2024-04-18T02:33:47.554Z,25.69
2024-04-18T02:34:47.512Z,25.69
2024-04-18T02:35:47.585Z,25.69
2024-04-18T02:36:47.666Z,25.68
2024-04-18T02:37:47.663Z,25.70
2024-04-18T02:38:47.700Z,25.68
2024-04-18T02:39:47.784Z,25.70
2024-04-18T02:40:47.824Z,25.69
2024-04-18T02:41:47.885Z,25.69
2024-04-18T02:42:47.973Z,25.70
2024-04-18T02:43:47.995Z,25.69
2024-04-18T02:44:48.061Z,25.70
2024-04-18T02:45:48.176Z,25.68
2024-04-18T02:46:48.188Z,25.70
2024-04-18T02:47:48.310Z,25.68
2024-04-18T02:48:48.338Z,25.66
2024-04-18T02:49:48.382Z,25.69
2024-04-18T02:50:48.412Z,25.68
2024-04-18T02:51:48.514Z,25.69
2024-04-18T02:52:48.544Z,25.69
2024-04-18T02:53:48.597Z,25.69
2024-04-18T02:54:48.704Z,25.68
2024-04-18T02:55:48.711Z,25.68
2024-04-18T02:56:48.777Z,25.68
2024-04-18T02:57:49.054Z,25.69
2024-04-18T02:58:48.892Z,25.69
2024-04-18T02:59:48.949Z,25.69
2024-04-18T03:00:49.090Z,25.68
2024-04-18T03:01:49.078Z,25.68
2024-04-18T03:02:49.234Z,25.66
2024-04-18T03:03:49.317Z,25.68
2024-04-18T03:04:49.259Z,25.66
2024-04-18T03:05:49.342Z,25.68
2024-04-18T03:06:49.455Z,25.66
2024-04-18T03:07:49.459Z,25.68
2024-04-18T03:08:49.501Z,25.68
2024-04-18T03:09:49.640Z,25.68
2024-04-18T03:10:49.718Z,25.68
2024-04-18T03:11:49.751Z,25.68
2024-04-18T03:12:49.803Z,25.66
2024-04-18T03:13:49.828Z,25.66
2024-04-18T03:14:49.893Z,25.66
2024-04-18T03:15:50.020Z,25.66
2024-04-18T03:16:50.037Z,25.69
2024-04-18T03:17:50.237Z,25.66
2024-04-18T03:18:50.164Z,25.68
2024-04-18T03:19:50.173Z,25.66
2024-04-18T03:20:50.233Z,25.68
2024-04-18T03:21:50.363Z,25.68
2024-04-18T03:22:50.363Z,25.69
2024-04-18T03:23:50.418Z,25.68
2024-04-18T03:24:50.584Z,25.68
2024-04-18T03:25:50.530Z,25.66
2024-04-18T03:26:50.603Z,25.68
2024-04-18T03:27:50.718Z,25.66
2024-04-18T03:28:50.740Z,25.65
2024-04-18T03:29:50.771Z,25.68
2024-04-18T03:30:50.889Z,25.68
2024-04-18T03:31:50.893Z,25.66
2024-04-18T03:32:50.937Z,25.65
2024-04-18T03:33:51.075Z,25.65
2024-04-18T03:34:51.033Z,25.69
2024-04-18T03:35:51.087Z,25.66
2024-04-18T03:36:51.172Z,25.68
2024-04-18T03:37:51.223Z,25.69
2024-04-18T03:38:51.245Z,25.70
2024-04-18T03:39:51.356Z,25.69
2024-04-18T03:40:51.370Z,25.69
2024-04-18T03:41:51.424Z,25.72
2024-04-18T03:42:51.551Z,25.68
2024-04-18T03:43:51.547Z,25.69
2024-04-18T03:44:51.599Z,25.68
2024-04-18T03:45:51.774Z,25.69
2024-04-18T03:46:51.726Z,25.68
2024-04-18T03:47:51.877Z,25.70
2024-04-18T03:48:51.861Z,25.70
2024-04-18T03:49:51.911Z,25.68
2024-04-18T03:50:51.930Z,25.69
2024-04-18T03:51:52.045Z,25.68
2024-04-18T03:52:52.015Z,25.69
2024-04-18T03:53:52.068Z,25.69
2024-04-18T03:55:01.339Z,25.70
2024-04-18T03:55:52.163Z,25.68
2024-04-18T03:56:52.132Z,25.69
2024-04-18T03:57:52.178Z,25.69
2024-04-18T03:58:52.137Z,25.68
2024-04-18T03:59:52.141Z,25.68
2024-04-18T04:00:52.207Z,25.68
2024-04-18T04:01:52.191Z,25.72
2024-04-18T04:02:52.155Z,25.68
2024-04-18T04:03:52.227Z,25.69
2024-04-18T04:04:52.207Z,25.69
2024-04-18T04:05:52.169Z,25.69
2024-04-18T04:06:52.233Z,25.66
2024-04-18T04:07:52.165Z,25.68
2024-04-18T04:08:52.157Z,25.69
2024-04-18T04:09:52.194Z,25.65
2024-04-18T04:10:52.253Z,25.68
2024-04-18T04:11:52.188Z,25.69
2024-04-18T04:12:52.282Z,25.66
2024-04-18T04:13:52.171Z,25.65
2024-04-18T04:14:52.226Z,25.69
2024-04-18T04:15:52.322Z,25.68
2024-04-18T04:16:52.186Z,25.68
2024-04-18T04:17:52.248Z,25.68
2024-04-18T04:18:52.243Z,25.68
2024-04-18T04:19:52.205Z,25.68
2024-04-18T04:20:52.198Z,25.66
2024-04-18T04:21:53.239Z,25.70
2024-04-18T04:22:52.187Z,25.69
2024-04-18T04:23:52.199Z,25.66
2024-04-18T04:24:52.316Z,25.68
2024-04-18T04:25:52.258Z,25.68
2024-04-18T04:26:52.319Z,25.68
2024-04-18T04:27:52.409Z,25.68
2024-04-18T04:28:53.458Z,25.69
2024-04-18T04:29:52.496Z,25.68
2024-04-18T04:30:53.633Z,25.69
2024-04-18T04:31:52.653Z,25.69
2024-04-18T04:32:52.782Z,25.68
2024-04-18T04:33:52.775Z,25.66
2024-04-18T04:34:52.821Z,25.68
2024-04-18T04:35:52.873Z,25.69
2024-04-18T04:36:54.118Z,25.68
2024-04-18T04:37:52.997Z,25.66
2024-04-18T04:38:53.055Z,25.65
2024-04-18T04:39:53.189Z,25.70
2024-04-18T04:40:53.198Z,25.68
2024-04-18T04:41:53.249Z,25.68
2024-04-18T04:42:53.853Z,25.68
2024-04-18T04:43:53.392Z,25.69
2024-04-18T04:44:53.417Z,25.69
2024-04-18T04:46:00.649Z,25.65
2024-04-18T04:47:01.637Z,25.66
2024-04-18T04:48:01.715Z,25.69
2024-04-18T04:49:01.701Z,25.68
2024-04-18T04:50:01.730Z,25.68
2024-04-18T04:51:01.670Z,25.68
2024-04-18T04:52:01.663Z,25.68
2024-04-18T04:53:01.640Z,25.68
2024-04-18T04:54:01.650Z,25.69
2024-04-18T04:55:01.643Z,25.68
2024-04-18T04:56:01.657Z,25.68
2024-04-18T04:57:01.721Z,25.70
2024-04-18T04:58:01.647Z,25.69
2024-04-18T04:59:01.679Z,25.70
2024-04-18T05:00:01.727Z,25.69
2024-04-18T05:01:01.751Z,25.69
2024-04-18T05:02:01.740Z,25.68
2024-04-18T05:03:01.721Z,25.69
2024-04-18T05:04:01.729Z,25.68
2024-04-18T05:05:01.662Z,25.70
2024-04-18T05:06:01.703Z,25.70
2024-04-18T05:07:01.662Z,25.70
2024-04-18T05:08:01.679Z,25.69
2024-04-18T05:09:01.671Z,25.72
2024-04-18T05:10:01.795Z,25.70
2024-04-18T05:11:01.731Z,25.72
2024-04-18T05:12:01.699Z,25.70
2024-04-18T05:13:01.714Z,25.68
2024-04-18T05:14:01.768Z,25.70
2024-04-18T05:15:01.842Z,25.72
2024-04-18T05:16:02.453Z,25.72
2024-04-18T05:17:01.937Z,25.70
2024-04-18T05:18:02.000Z,25.70
2024-04-18T05:19:02.014Z,25.70
2024-04-18T05:20:02.061Z,25.75
2024-04-18T05:21:02.187Z,25.76
2024-04-18T05:22:02.168Z,25.75
2024-04-18T05:23:02.225Z,25.76
2024-04-18T05:24:02.294Z,25.77
2024-04-18T05:25:02.321Z,25.77
2024-04-18T05:26:02.852Z,25.80
2024-04-18T05:27:02.417Z,25.77
2024-04-18T05:28:02.482Z,25.73
2024-04-18T05:29:02.531Z,25.63
2024-04-18T05:30:02.593Z,25.54
2024-04-18T05:31:03.107Z,25.42
2024-04-18T05:32:02.649Z,25.31
2024-04-18T05:33:02.804Z,25.21
2024-04-18T05:34:02.789Z,25.19
2024-04-18T05:35:03.575Z,25.14
2024-04-18T05:36:02.855Z,25.07
2024-04-18T05:37:03.169Z,25.10
2024-04-18T05:38:02.914Z,25.10
2024-04-18T05:39:02.943Z,25.11
2024-04-18T05:40:03.028Z,25.11
2024-04-18T05:41:03.312Z,25.14
2024-04-18T05:42:03.293Z,25.17
2024-04-18T05:43:03.973Z,25.19
2024-04-18T05:44:03.015Z,25.21
2024-04-18T05:45:03.012Z,25.22
2024-04-18T05:46:03.037Z,25.22
2024-04-18T05:47:03.104Z,25.25
2024-04-18T05:48:03.146Z,25.28
2024-04-18T05:49:03.207Z,25.31
2024-04-18T05:50:04.274Z,25.33
2024-04-18T05:51:03.278Z,25.36
2024-04-18T05:52:03.810Z,25.39
2024-04-18T05:53:03.377Z,25.42
2024-04-18T05:54:03.463Z,25.49
2024-04-18T05:55:03.523Z,25.49
2024-04-18T05:56:03.616Z,25.54
2024-04-18T05:57:04.978Z,25.56
2024-04-18T05:58:03.854Z,25.63
2024-04-18T05:59:19.497Z,25.63
2024-04-18T06:00:03.945Z,25.66
2024-04-18T06:01:04.160Z,25.72
2024-04-18T06:02:04.052Z,25.75
2024-04-18T06:03:19.657Z,25.77
2024-04-18T06:04:07.317Z,25.80
2024-04-18T06:05:03.978Z,25.81
2024-04-18T06:06:03.974Z,25.84
2024-04-18T06:07:03.929Z,25.87
2024-04-18T06:08:03.956Z,25.89
2024-04-18T06:09:03.989Z,25.91
2024-04-18T06:10:03.913Z,25.91
2024-04-18T06:11:04.085Z,26.00
2024-04-18T06:12:03.953Z,26.00
2024-04-18T06:13:03.945Z,26.03
2024-04-18T06:14:03.971Z,26.05
2024-04-18T06:15:04.008Z,26.05
2024-04-18T06:16:03.891Z,26.10
2024-04-18T06:17:04.234Z,26.11
2024-04-18T06:18:03.823Z,26.11
2024-04-18T06:19:03.806Z,26.13
2024-04-18T06:20:03.812Z,26.16
2024-04-18T06:21:03.814Z,26.18
2024-04-18T06:22:03.814Z,26.20
2024-04-18T06:23:03.867Z,26.20
2024-04-18T06:24:03.915Z,26.21
2024-04-18T06:25:03.964Z,26.21
2024-04-18T06:26:03.930Z,26.23
2024-04-18T06:27:03.976Z,26.24
2024-04-18T06:28:04.027Z,26.27
2024-04-18T06:29:07.257Z,26.30
2024-04-18T06:30:04.095Z,26.30
2024-04-18T06:31:04.351Z,26.35
2024-04-18T06:32:04.067Z,26.32
2024-04-18T06:33:04.230Z,26.37
2024-04-18T06:34:04.416Z,26.38
2024-04-18T06:35:04.098Z,26.39
2024-04-18T06:36:04.079Z,26.41
2024-04-18T06:37:07.419Z,26.42
2024-04-18T06:38:04.130Z,26.42
2024-04-18T06:39:04.089Z,26.44
2024-04-18T06:40:04.172Z,26.44
2024-04-18T06:41:04.066Z,26.47
2024-04-18T06:42:04.870Z,26.47
2024-04-18T06:43:04.097Z,26.49
2024-04-18T06:44:05.400Z,26.48
2024-04-18T06:45:04.197Z,26.52
2024-04-18T06:46:05.339Z,26.51
2024-04-18T06:47:05.132Z,26.55
2024-04-18T06:48:07.310Z,26.56
2024-04-18T06:49:04.171Z,26.56
2024-04-18T06:50:38.927Z,26.56
2024-04-18T06:51:06.140Z,26.58
2024-04-18T06:52:05.071Z,26.58
2024-04-18T06:53:04.065Z,26.55
2024-04-18T06:54:04.156Z,26.58
2024-04-18T06:55:04.130Z,26.58
2024-04-18T06:56:11.762Z,26.56
2024-04-18T06:57:35.999Z,26.58
2024-04-18T06:58:04.116Z,26.58
2024-04-18T06:59:04.322Z,26.58
2024-04-18T07:00:04.274Z,26.62
2024-04-18T07:01:04.707Z,26.60
2024-04-18T07:02:04.289Z,26.60
2024-04-18T07:03:04.209Z,26.62
2024-04-18T07:04:04.483Z,26.63
2024-04-18T07:05:04.472Z,26.63
2024-04-18T07:06:04.352Z,26.62
2024-04-18T07:07:04.563Z,26.62
2024-04-18T07:08:04.113Z,26.62
2024-04-18T07:09:04.177Z,26.63
2024-04-18T07:10:04.234Z,26.62
2024-04-18T07:11:04.557Z,26.63
2024-04-18T07:12:04.530Z,26.62
2024-04-18T07:13:04.146Z,26.60
2024-04-18T07:14:04.161Z,26.62
2024-04-18T07:15:04.239Z,26.59
2024-04-18T07:16:04.189Z,26.59
2024-04-18T07:17:05.133Z,26.59
2024-04-18T07:18:04.320Z,26.60
2024-04-18T07:19:04.561Z,26.58
2024-04-18T07:20:04.190Z,26.62
2024-04-18T07:21:04.457Z,26.62
2024-04-18T07:22:04.441Z,26.60
2024-04-18T07:23:04.145Z,26.62
2024-04-18T07:24:04.190Z,26.63
2024-04-18T07:25:04.181Z,26.66
2024-04-18T07:26:04.333Z,26.63
2024-04-18T07:27:04.399Z,26.68
2024-04-18T07:28:04.281Z,26.68
2024-04-18T07:29:04.305Z,26.71
2024-04-18T07:30:05.341Z,26.68
2024-04-18T07:31:04.482Z,26.69
2024-04-18T07:32:05.317Z,26.74
2024-04-18T07:33:04.986Z,26.74
2024-04-18T07:34:04.552Z,26.72
2024-04-18T07:35:04.564Z,26.72
2024-04-18T07:36:04.808Z,26.74
2024-04-18T07:37:05.191Z,26.68
2024-04-18T07:38:05.199Z,26.62
2024-04-18T07:39:04.793Z,26.47
2024-04-18T07:40:05.029Z,26.31
2024-04-18T07:41:05.299Z,26.17
2024-04-18T07:42:05.576Z,26.10
2024-04-18T07:43:05.109Z,26.04
2024-04-18T07:44:05.115Z,26.01
2024-04-18T07:45:05.144Z,25.87
2024-04-18T07:46:05.510Z,25.63
2024-04-18T07:47:05.609Z,25.52
2024-04-18T07:48:05.400Z,25.39
2024-04-18T07:49:05.368Z,25.24
2024-04-18T07:50:05.387Z,25.08
2024-04-18T07:51:05.417Z,24.93
2024-04-18T07:52:09.973Z,24.90
2024-04-18T07:53:09.768Z,24.83
2024-04-18T07:54:06.531Z,24.78
2024-04-18T07:55:06.048Z,24.73
2024-04-18T07:56:06.019Z,24.66
2024-04-18T07:57:06.380Z,24.64
2024-04-18T07:58:06.746Z,24.66
2024-04-18T07:59:06.194Z,24.71
2024-04-18T08:00:07.323Z,24.78
2024-04-18T08:01:07.710Z,24.86
2024-04-18T08:02:08.558Z,24.93
2024-04-18T08:03:08.818Z,25.03
2024-04-18T08:04:27.014Z,25.10
2024-04-18T08:05:07.284Z,25.19
2024-04-18T08:06:07.725Z,25.28
2024-04-18T08:07:09.118Z,25.33
2024-04-18T08:08:08.147Z,25.41
2024-04-18T08:09:08.172Z,25.50
2024-04-18T08:10:09.045Z,25.56
2024-04-18T08:11:26.012Z,25.60
2024-04-18T08:12:23.702Z,25.68
2024-04-18T08:13:10.147Z,25.75
2024-04-18T08:14:09.628Z,25.81
2024-04-18T08:15:10.970Z,25.86
2024-04-18T08:16:05.996Z,25.91
2024-04-18T08:17:06.115Z,25.94
2024-04-18T08:18:05.991Z,26.00
2024-04-18T08:19:05.855Z,26.05
2024-04-18T08:20:06.049Z,26.07
2024-04-18T08:21:05.874Z,26.13
2024-04-18T08:22:05.877Z,26.17
2024-04-18T08:23:06.392Z,26.18
2024-04-18T08:24:05.890Z,26.23
2024-04-18T08:25:05.831Z,26.28
2024-04-18T08:26:05.891Z,26.30
2024-04-18T08:27:05.899Z,26.34
2024-04-18T08:28:05.835Z,26.39
2024-04-18T08:29:05.832Z,26.41
2024-04-18T08:30:05.886Z,26.41
2024-04-18T08:31:05.895Z,26.44
2024-04-18T08:32:05.902Z,26.44
2024-04-18T08:33:09.183Z,26.42
2024-04-18T08:34:11.725Z,26.47
2024-04-18T08:35:05.838Z,26.48
2024-04-18T08:36:05.868Z,26.45
2024-04-18T08:37:05.883Z,26.47
2024-04-18T08:38:05.867Z,26.45
2024-04-18T08:39:06.399Z,26.47
2024-04-18T08:40:05.853Z,26.47
2024-04-18T08:41:05.866Z,26.48
2024-04-18T08:42:05.954Z,26.51
2024-04-18T08:43:05.972Z,26.49
2024-04-18T08:44:06.251Z,26.54
2024-04-18T08:45:05.889Z,26.56
2024-04-18T08:46:07.201Z,26.58
2024-04-18T08:47:05.985Z,26.58
2024-04-18T08:48:07.084Z,26.56
2024-04-18T08:49:06.096Z,26.58
2024-04-18T08:50:05.923Z,26.56
2024-04-18T08:51:06.890Z,26.56
2024-04-18T08:52:05.895Z,26.54
2024-04-18T08:53:05.939Z,26.54
2024-04-18T08:54:05.901Z,26.55
2024-04-18T08:55:05.887Z,26.51
2024-04-18T08:56:05.886Z,26.51
2024-04-18T08:57:21.511Z,26.49
2024-04-18T08:58:05.890Z,26.48
2024-04-18T08:59:06.868Z,26.47
2024-04-18T09:00:05.965Z,26.44
2024-04-18T09:01:06.418Z,26.45
2024-04-18T09:02:05.890Z,26.44
2024-04-18T09:03:06.100Z,26.45
2024-04-18T09:04:07.118Z,26.44
2024-04-18T09:05:05.884Z,26.44
2024-04-18T09:06:06.546Z,26.47
2024-04-18T09:07:05.897Z,26.48
2024-04-18T09:08:05.903Z,26.49
2024-04-18T09:09:06.001Z,26.49
2024-04-18T09:10:06.256Z,26.51
2024-04-18T09:11:06.683Z,26.51
2024-04-18T09:12:07.526Z,26.54
2024-04-18T09:14:05.320Z,26.55
2024-04-18T09:15:06.368Z,26.58
2024-04-18T09:16:06.326Z,26.59
2024-04-18T09:17:08.040Z,26.60
2024-04-18T09:18:07.600Z,26.63
2024-04-18T09:19:07.624Z,26.63
2024-04-18T09:20:06.658Z,26.68
2024-04-18T09:21:06.975Z,26.69
2024-04-18T09:22:06.714Z,26.69
2024-04-18T09:23:06.895Z,26.71
2024-04-18T09:24:06.734Z,26.75
2024-04-18T09:25:06.727Z,26.76
2024-04-18T09:26:06.908Z,26.79
2024-04-18T09:27:06.796Z,26.78
2024-04-18T09:28:06.823Z,26.83
2024-04-18T09:29:06.933Z,26.82
2024-04-18T09:30:06.909Z,26.81
2024-04-18T09:31:06.922Z,26.76
2024-04-18T09:32:06.957Z,26.71
2024-04-18T09:33:08.040Z,26.63
2024-04-18T09:34:07.542Z,26.59
2024-04-18T09:35:07.012Z,26.52
2024-04-18T09:36:07.099Z,26.39
2024-04-18T09:37:07.437Z,26.17
2024-04-18T09:38:10.250Z,25.91
2024-04-18T09:39:07.200Z,25.68
2024-04-18T09:40:07.184Z,25.42
2024-04-18T09:41:07.139Z,25.26
2024-04-18T09:42:07.428Z,25.15
2024-04-18T09:43:07.357Z,25.05
2024-04-18T09:44:07.581Z,24.98
2024-04-18T09:45:07.352Z,24.99
2024-04-18T09:46:07.332Z,24.98
2024-04-18T09:47:07.593Z,25.01
2024-04-18T09:48:07.527Z,25.07
2024-04-18T09:49:07.393Z,25.11
2024-04-18T09:50:07.266Z,25.19
2024-04-18T09:51:07.214Z,25.21
2024-04-18T09:52:07.231Z,25.26
2024-04-18T09:53:07.167Z,25.32
2024-04-18T09:54:07.510Z,25.41
2024-04-18T09:55:07.196Z,25.45
2024-04-18T09:56:07.244Z,25.52
2024-04-18T09:57:07.415Z,25.54
2024-04-18T09:58:07.398Z,25.60
2024-04-18T09:59:07.475Z,25.66
2024-04-18T10:00:07.519Z,25.72
2024-04-18T10:01:07.549Z,25.77
2024-04-18T10:02:09.586Z,25.81
2024-04-18T10:03:07.714Z,25.87
2024-04-18T10:04:07.800Z,25.91
2024-04-18T10:05:07.862Z,25.96
2024-04-18T10:06:10.861Z,25.99
2024-04-18T10:07:07.719Z,26.03
2024-04-18T10:08:07.564Z,26.07
2024-04-18T10:09:07.622Z,26.13
2024-04-18T10:10:07.535Z,26.17
2024-04-18T10:11:07.613Z,26.16
2024-04-18T10:12:08.004Z,26.20
2024-04-18T10:13:07.562Z,26.21
2024-04-18T10:14:07.670Z,26.21
2024-04-18T10:15:07.636Z,26.20
2024-04-18T10:16:07.777Z,26.21
2024-04-18T10:17:07.589Z,26.20
2024-04-18T10:18:07.729Z,26.18
2024-04-18T10:19:07.799Z,26.24
2024-04-18T10:20:07.606Z,26.21
2024-04-18T10:21:07.585Z,26.24
2024-04-18T10:22:17.644Z,26.24
2024-04-18T10:23:07.653Z,26.21
2024-04-18T10:24:07.610Z,26.24
2024-04-18T10:25:07.981Z,26.26
2024-04-18T10:26:07.614Z,26.23
2024-04-18T10:27:08.563Z,26.24
2024-04-18T10:28:10.736Z,26.27
2024-04-18T10:29:07.620Z,26.27
2024-04-18T10:30:07.617Z,26.26
2024-04-18T10:31:09.411Z,26.26
2024-04-18T10:32:07.981Z,26.28
2024-04-18T10:33:08.256Z,26.24
2024-04-18T10:34:07.619Z,26.26
2024-04-18T10:35:07.641Z,26.28
2024-04-18T10:36:07.601Z,26.27
2024-04-18T10:37:07.580Z,26.30
2024-04-18T10:38:07.937Z,26.30
2024-04-18T10:39:07.561Z,26.30
2024-04-18T10:40:07.576Z,26.31
2024-04-18T10:41:07.554Z,26.28
2024-04-18T10:42:07.637Z,26.31
2024-04-18T10:43:07.560Z,26.31
2024-04-18T10:44:07.562Z,26.31
2024-04-18T10:45:07.593Z,26.34
2024-04-18T10:46:07.603Z,26.31
2024-04-18T10:47:07.579Z,26.35
2024-04-18T10:48:07.673Z,26.32
2024-04-18T10:49:07.663Z,26.35
2024-04-18T10:50:07.567Z,26.34
2024-04-18T10:51:07.624Z,26.35
2024-04-18T10:52:07.929Z,26.34
2024-04-18T10:53:07.618Z,26.34
2024-04-18T10:54:07.612Z,26.34
2024-04-18T10:55:07.663Z,26.37
2024-04-18T10:56:07.735Z,26.32
2024-04-18T10:57:07.766Z,26.35
2024-04-18T11:47:07.471Z,26.38
2024-04-18T11:48:08.388Z,26.39
2024-04-18T11:49:08.171Z,26.38
2024-04-18T11:50:08.211Z,26.39
2024-04-18T11:51:08.071Z,26.41
2024-04-18T11:52:08.055Z,26.39
2024-04-18T11:53:08.073Z,26.42
2024-04-18T11:54:08.083Z,26.41
2024-04-18T11:55:08.081Z,26.39
2024-04-18T11:56:08.123Z,26.42
2024-04-18T11:57:08.107Z,26.41
2024-04-18T11:58:08.075Z,26.44
2024-04-18T11:59:08.136Z,26.44
2024-04-18T12:00:08.130Z,26.44
2024-04-18T12:01:08.118Z,26.44
2024-04-18T12:02:08.088Z,26.45
2024-04-18T12:03:08.218Z,26.45
2024-04-18T12:04:08.254Z,26.45
2024-04-18T12:05:08.183Z,26.44
2024-04-18T12:06:08.176Z,26.42
2024-04-18T12:07:08.463Z,26.42
2024-04-18T12:08:08.130Z,26.41
2024-04-18T12:09:08.236Z,26.41
2024-04-18T12:10:08.210Z,26.41
2024-04-18T12:11:08.474Z,26.39
2024-04-18T12:12:08.340Z,26.41
2024-04-18T12:13:08.397Z,26.39
2024-04-18T12:14:09.684Z,26.38
2024-04-18T12:15:08.589Z,26.38
2024-04-18T12:16:09.028Z,26.41
2024-04-18T12:17:08.628Z,26.39
2024-04-18T12:18:08.676Z,26.38
2024-04-18T12:19:08.902Z,26.41
2024-04-18T12:20:08.684Z,26.39
2024-04-18T12:21:08.989Z,26.39
2024-04-18T12:22:08.736Z,26.38
2024-04-18T12:23:08.821Z,26.44
2024-04-18T12:24:08.851Z,26.42
2024-04-18T12:25:08.867Z,26.44
2024-04-18T12:26:08.906Z,26.41
2024-04-18T12:27:08.994Z,26.42
2024-04-18T12:28:08.991Z,26.47
2024-04-18T12:29:09.477Z,26.47
2024-04-18T12:30:09.133Z,26.47
2024-04-18T12:31:09.092Z,26.47
2024-04-18T12:32:09.161Z,26.47
2024-04-18T12:33:09.532Z,26.48
2024-04-18T12:34:09.267Z,26.47
2024-04-18T12:35:09.499Z,26.45
2024-04-18T12:36:09.388Z,26.49
2024-04-18T12:37:09.492Z,26.48
2024-04-18T12:38:09.482Z,26.47
2024-04-18T12:39:09.949Z,26.48
2024-04-18T12:40:09.986Z,26.48
2024-04-18T12:41:09.661Z,26.48
2024-04-18T12:42:09.728Z,26.48
2024-04-18T12:43:09.758Z,26.49
2024-04-18T12:44:09.828Z,26.51
2024-04-18T12:45:09.943Z,26.49
2024-04-18T12:46:15.316Z,26.49
2024-04-18T12:47:09.994Z,26.51
2024-04-18T12:48:10.032Z,26.49
2024-04-18T12:49:10.146Z,26.48
2024-04-18T12:50:09.995Z,26.47
2024-04-18T12:51:09.977Z,26.48
2024-04-18T12:52:10.039Z,26.47
2024-04-18T12:53:09.960Z,26.47
2024-04-18T12:54:09.996Z,26.49
2024-04-18T12:55:09.966Z,26.48
2024-04-18T12:56:09.968Z,26.47
2024-04-18T12:57:10.045Z,26.48
2024-04-18T12:58:09.986Z,26.47
2024-04-18T12:59:11.003Z,26.51
2024-04-18T13:00:10.029Z,26.47
2024-04-18T13:01:10.126Z,26.49
2024-04-18T13:02:10.000Z,26.47
2024-04-18T13:03:10.072Z,26.47
2024-04-18T13:04:10.077Z,26.44
2024-04-18T13:05:10.544Z,26.47
2024-04-18T13:06:10.003Z,26.47
2024-04-18T13:07:09.988Z,26.47
2024-04-18T13:08:10.011Z,26.45
2024-04-18T13:09:10.127Z,26.47
2024-04-18T13:10:10.103Z,26.47
2024-04-18T13:11:10.275Z,26.45
2024-04-18T13:12:10.262Z,26.45
2024-04-18T13:13:10.280Z,26.47
2024-04-18T13:14:10.336Z,26.47
2024-04-18T13:15:10.473Z,26.44
2024-04-18T13:16:10.486Z,26.42
2024-04-18T13:17:10.506Z,26.47
2024-04-18T13:18:10.607Z,26.44
2024-04-18T13:19:10.566Z,26.44
2024-04-18T13:20:10.627Z,26.44
2024-04-18T13:21:10.642Z,26.41
2024-04-18T13:22:10.664Z,26.45
2024-04-18T13:23:10.731Z,26.41
2024-04-18T13:24:10.743Z,26.39
2024-04-18T13:25:10.762Z,26.42
2024-04-18T13:26:10.829Z,26.39
2024-04-18T13:27:11.036Z,26.39
2024-04-18T13:28:10.901Z,26.39
2024-04-18T13:29:10.903Z,26.41
2024-04-18T13:30:10.933Z,26.39
2024-04-18T13:31:10.923Z,26.39
2024-04-18T13:32:10.950Z,26.39
2024-04-18T13:33:11.081Z,26.37
2024-04-18T13:34:11.057Z,26.38
2024-04-18T13:35:11.134Z,26.37
2024-04-18T13:36:11.103Z,26.38
2024-04-18T13:37:11.044Z,26.39
2024-04-18T13:38:11.058Z,26.39
2024-04-18T13:39:11.143Z,26.38
2024-04-18T13:40:11.132Z,26.39
2024-04-18T13:41:11.122Z,26.41
2024-04-18T13:42:11.162Z,26.42
2024-04-18T13:43:11.177Z,26.41